Victoria, Virginia
Current Conditions -  °F | °C
As of 2:15 AM on Friday 31 Oct 2014 (Local Time) from KW31 Reporting Station
Clear Clear  
Wind Chill: 38°   Ceiling: Unl
Heat Index: 42°   Visibility: 10mi
Dew Point: 37°   Wind: 6mph
Humidity: 84%   Direction: 360°N
Pressure: 30"   Gusts: NA
Location:  36.99°N, 78.23°W
Report Text: KW31 310615Z AUTO 36005KT 10SM CLR 06/03 A3000 RMK AO1 T00550030
Loading
Personal Weather Stations






























Interactive Weather Map
Tropical Storm Tracking
New forecast layout! Learn more

10-Day Weather Forecast

Advertisements
Track Severe Weather on mobile